sensor_id;sensor_type;location;lat;lon;timestamp;temperature;humidity
26589;DHT22;14235;48.532;8.722;2022-09-09T00:03:59;15.20;99.90
26589;DHT22;14235;48.532;8.722;2022-09-09T00:06:31;15.20;99.90
26589;DHT22;14235;48.532;8.722;2022-09-09T00:09:21;15.10;99.90
26589;DHT22;14235;48.532;8.722;2022-09-09T00:12:22;14.80;99.90
26589;DHT22;14235;48.532;8.722;2022-09-09T00:15:07;14.80;99.90
26589;DHT22;14235;48.532;8.722;2022-09-09T00:17:43;14.80;99.90
26589;DHT22;14235;48.532;8.722;2022-09-09T00:20:16;15.00;99.90
26589;DHT22;14235;48.532;8.722;2022-09-09T00:22:51;14.80;99.90
26589;DHT22;14235;48.532;8.722;2022-09-09T00:25:23;14.80;99.90
26589;DHT22;14235;48.532;8.722;2022-09-09T00:27:51;14.90;99.90
26589;DHT22;14235;48.532;8.722;2022-09-09T00:30:32;14.90;99.90
26589;DHT22;14235;48.532;8.722;2022-09-09T00:33:11;14.90;99.90
26589;DHT22;14235;48.532;8.722;2022-09-09T00:35:51;14.70;99.90
26589;DHT22;14235;48.532;8.722;2022-09-09T00:38:42;14.60;99.90
26589;DHT22;14235;48.532;8.722;2022-09-09T00:43:40;14.70;99.90
26589;DHT22;14235;48.532;8.722;2022-09-09T01:05:49;14.80;99.90
26589;DHT22;14235;48.532;8.722;2022-09-09T01:10:56;14.40;99.90
26589;DHT22;14235;48.532;8.722;2022-09-09T01:13:27;14.30;99.90
26589;DHT22;14235;48.532;8.722;2022-09-09T01:15:57;14.20;99.90
26589;DHT22;14235;48.532;8.722;2022-09-09T01:18:27;14.10;99.90
26589;DHT22;14235;48.532;8.722;2022-09-09T01:28:54;14.30;99.90
26589;DHT22;14235;48.532;8.722;2022-09-09T01:31:30;14.40;99.90
26589;DHT22;14235;48.532;8.722;2022-09-09T01:33:56;14.40;99.90
26589;DHT22;14235;48.532;8.722;2022-09-09T01:36:27;14.30;99.90
26589;DHT22;14235;48.532;8.722;2022-09-09T01:38:55;14.40;99.90
26589;DHT22;14235;48.532;8.722;2022-09-09T01:41:21;14.40;99.90
26589;DHT22;14235;48.532;8.722;2022-09-09T01:43:47;14.40;99.90
26589;DHT22;14235;48.532;8.722;2022-09-09T01:46:13;14.20;99.90
26589;DHT22;14235;48.532;8.722;2022-09-09T01:48:39;14.30;99.90
26589;DHT22;14235;48.532;8.722;2022-09-09T01:51:08;14.30;99.90
26589;DHT22;14235;48.532;8.722;2022-09-09T01:53:35;14.30;99.90
26589;DHT22;14235;48.532;8.722;2022-09-09T01:56:11;14.30;99.90
26589;DHT22;14235;48.532;8.722;2022-09-09T01:59:18;14.30;99.90
26589;DHT22;14235;48.532;8.722;2022-09-09T02:06:50;14.30;99.90
26589;DHT22;14235;48.532;8.722;2022-09-09T02:09:23;14.20;99.90
26589;DHT22;14235;48.532;8.722;2022-09-09T02:11:51;14.20;99.90
26589;DHT22;14235;48.532;8.722;2022-09-09T02:14:25;14.20;99.90
26589;DHT22;14235;48.532;8.722;2022-09-09T02:17:01;14.10;99.90
26589;DHT22;14235;48.532;8.722;2022-09-09T02:19:49;14.20;99.90
26589;DHT22;14235;48.532;8.722;2022-09-09T02:22:18;14.10;99.90
26589;DHT22;14235;48.532;8.722;2022-09-09T02:24:46;14.10;99.90
26589;DHT22;14235;48.532;8.722;2022-09-09T02:27:13;14.10;99.90
26589;DHT22;14235;48.532;8.722;2022-09-09T02:29:42;14.20;99.90
26589;DHT22;14235;48.532;8.722;2022-09-09T02:32:17;14.10;99.90
26589;DHT22;14235;48.532;8.722;2022-09-09T02:34:47;14.10;99.90
26589;DHT22;14235;48.532;8.722;2022-09-09T02:37:17;14.10;99.90
26589;DHT22;14235;48.532;8.722;2022-09-09T02:39:43;14.00;99.90
26589;DHT22;14235;48.532;8.722;2022-09-09T02:42:09;14.00;99.90
26589;DHT22;14235;48.532;8.722;2022-09-09T02:44:35;14.00;99.90
26589;DHT22;14235;48.532;8.722;2022-09-09T02:50:11;14.00;99.90
26589;DHT22;14235;48.532;8.722;2022-09-09T02:52:43;14.00;99.90
26589;DHT22;14235;48.532;8.722;2022-09-09T02:58:04;13.90;99.90
26589;DHT22;14235;48.532;8.722;2022-09-09T03:00:31;13.80;99.90
26589;DHT22;14235;48.532;8.722;2022-09-09T03:02:58;13.80;99.90
26589;DHT22;14235;48.532;8.722;2022-09-09T03:05:24;13.80;99.90
26589;DHT22;14235;48.532;8.722;2022-09-09T03:07:50;13.50;99.90
26589;DHT22;14235;48.532;8.722;2022-09-09T03:10:16;13.60;99.90
26589;DHT22;14235;48.532;8.722;2022-09-09T03:12:43;13.50;99.90
26589;DHT22;14235;48.532;8.722;2022-09-09T03:15:08;13.50;99.90
26589;DHT22;14235;48.532;8.722;2022-09-09T03:17:35;13.50;99.90
26589;DHT22;14235;48.532;8.722;2022-09-09T03:20:02;13.40;99.90
26589;DHT22;14235;48.532;8.722;2022-09-09T03:22:28;13.40;99.90
26589;DHT22;14235;48.532;8.722;2022-09-09T03:24:54;13.40;99.90
26589;DHT22;14235;48.532;8.722;2022-09-09T03:27:19;13.10;99.90
26589;DHT22;14235;48.532;8.722;2022-09-09T03:29:46;13.10;99.90
26589;DHT22;14235;48.532;8.722;2022-09-09T03:32:12;13.00;99.90
26589;DHT22;14235;48.532;8.722;2022-09-09T03:34:38;13.00;99.90
26589;DHT22;14235;48.532;8.722;2022-09-09T03:37:06;13.00;99.90
26589;DHT22;14235;48.532;8.722;2022-09-09T03:39:32;13.00;99.90
26589;DHT22;14235;48.532;8.722;2022-09-09T03:41:58;13.00;99.90
26589;DHT22;14235;48.532;8.722;2022-09-09T03:44:23;13.10;99.90
26589;DHT22;14235;48.532;8.722;2022-09-09T03:46:49;13.20;99.90
26589;DHT22;14235;48.532;8.722;2022-09-09T03:49:14;13.20;99.90
26589;DHT22;14235;48.532;8.722;2022-09-09T03:51:40;13.20;99.90
26589;DHT22;14235;48.532;8.722;2022-09-09T03:54:07;13.20;99.90
26589;DHT22;14235;48.532;8.722;2022-09-09T03:56:35;13.20;99.90
26589;DHT22;14235;48.532;8.722;2022-09-09T03:59:01;13.10;99.90
26589;DHT22;14235;48.532;8.722;2022-09-09T04:01:28;13.20;99.90
26589;DHT22;14235;48.532;8.722;2022-09-09T04:03:54;13.10;99.90
26589;DHT22;14235;48.532;8.722;2022-09-09T04:06:23;13.00;99.90
26589;DHT22;14235;48.532;8.722;2022-09-09T04:08:49;13.00;99.90
26589;DHT22;14235;48.532;8.722;2022-09-09T04:11:15;12.90;99.90
26589;DHT22;14235;48.532;8.722;2022-09-09T04:13:41;13.00;99.90
26589;DHT22;14235;48.532;8.722;2022-09-09T04:16:08;12.90;99.90
26589;DHT22;14235;48.532;8.722;2022-09-09T04:18:34;13.00;99.90
26589;DHT22;14235;48.532;8.722;2022-09-09T04:21:00;13.10;99.90
26589;DHT22;14235;48.532;8.722;2022-09-09T04:23:27;13.10;99.90
26589;DHT22;14235;48.532;8.722;2022-09-09T04:25:54;13.20;99.90
26589;DHT22;14235;48.532;8.722;2022-09-09T04:28:22;13.30;99.90
26589;DHT22;14235;48.532;8.722;2022-09-09T04:30:49;13.20;99.90
26589;DHT22;14235;48.532;8.722;2022-09-09T04:33:15;13.10;99.90
26589;DHT22;14235;48.532;8.722;2022-09-09T04:35:58;13.00;99.90
26589;DHT22;14235;48.532;8.722;2022-09-09T04:38:24;13.10;99.90
26589;DHT22;14235;48.532;8.722;2022-09-09T04:40:51;13.10;99.90
26589;DHT22;14235;48.532;8.722;2022-09-09T04:43:19;13.20;99.90
26589;DHT22;14235;48.532;8.722;2022-09-09T04:45:48;13.20;99.90
26589;DHT22;14235;48.532;8.722;2022-09-09T04:48:14;13.20;99.90
26589;DHT22;14235;48.532;8.722;2022-09-09T04:50:39;13.10;99.90
26589;DHT22;14235;48.532;8.722;2022-09-09T04:53:06;13.20;99.90
26589;DHT22;14235;48.532;8.722;2022-09-09T04:55:32;13.10;99.90
26589;DHT22;14235;48.532;8.722;2022-09-09T04:58:05;13.10;99.90
26589;DHT22;14235;48.532;8.722;2022-09-09T05:00:33;13.20;99.90
26589;DHT22;14235;48.532;8.722;2022-09-09T05:03:03;13.20;99.90
26589;DHT22;14235;48.532;8.722;2022-09-09T05:05:29;13.20;99.90
26589;DHT22;14235;48.532;8.722;2022-09-09T05:08:02;13.10;99.90
26589;DHT22;14235;48.532;8.722;2022-09-09T05:10:28;13.20;99.90
26589;DHT22;14235;48.532;8.722;2022-09-09T05:12:54;13.20;99.90
26589;DHT22;14235;48.532;8.722;2022-09-09T05:15:19;13.20;99.90
26589;DHT22;14235;48.532;8.722;2022-09-09T05:17:46;13.30;99.90
26589;DHT22;14235;48.532;8.722;2022-09-09T05:20:12;13.40;99.90
26589;DHT22;14235;48.532;8.722;2022-09-09T05:22:37;13.40;99.90
26589;DHT22;14235;48.532;8.722;2022-09-09T05:25:03;13.40;99.90
26589;DHT22;14235;48.532;8.722;2022-09-09T05:27:29;13.40;99.90
26589;DHT22;14235;48.532;8.722;2022-09-09T05:29:56;13.30;99.90
26589;DHT22;14235;48.532;8.722;2022-09-09T05:32:22;13.30;99.90
26589;DHT22;14235;48.532;8.722;2022-09-09T05:34:48;13.20;99.90
26589;DHT22;14235;48.532;8.722;2022-09-09T05:37:14;13.30;99.90
26589;DHT22;14235;48.532;8.722;2022-09-09T05:39:39;13.30;99.90
26589;DHT22;14235;48.532;8.722;2022-09-09T05:42:05;13.30;99.90
26589;DHT22;14235;48.532;8.722;2022-09-09T05:44:31;13.30;99.90
26589;DHT22;14235;48.532;8.722;2022-09-09T05:46:56;13.30;99.90
26589;DHT22;14235;48.532;8.722;2022-09-09T05:49:23;13.20;99.90
26589;DHT22;14235;48.532;8.722;2022-09-09T05:51:49;13.20;99.90
26589;DHT22;14235;48.532;8.722;2022-09-09T05:54:16;13.20;99.90
26589;DHT22;14235;48.532;8.722;2022-09-09T05:56:42;13.20;99.90
26589;DHT22;14235;48.532;8.722;2022-09-09T05:59:07;13.20;99.90
26589;DHT22;14235;48.532;8.722;2022-09-09T06:01:35;13.30;99.90
26589;DHT22;14235;48.532;8.722;2022-09-09T06:04:02;13.40;99.90
26589;DHT22;14235;48.532;8.722;2022-09-09T06:06:32;13.30;99.90
26589;DHT22;14235;48.532;8.722;2022-09-09T06:09:02;13.40;99.90
26589;DHT22;14235;48.532;8.722;2022-09-09T06:11:31;13.30;99.90
26589;DHT22;14235;48.532;8.722;2022-09-09T06:13:57;13.40;99.90
26589;DHT22;14235;48.532;8.722;2022-09-09T06:16:25;13.40;99.90
26589;DHT22;14235;48.532;8.722;2022-09-09T06:18:52;13.50;99.90
26589;DHT22;14235;48.532;8.722;2022-09-09T06:21:24;13.40;99.90
26589;DHT22;14235;48.532;8.722;2022-09-09T06:23:50;13.60;99.90
26589;DHT22;14235;48.532;8.722;2022-09-09T06:26:21;13.60;99.90
26589;DHT22;14235;48.532;8.722;2022-09-09T06:28:48;13.70;99.90
26589;DHT22;14235;48.532;8.722;2022-09-09T06:31:16;13.80;99.90
26589;DHT22;14235;48.532;8.722;2022-09-09T06:33:43;13.80;99.90
26589;DHT22;14235;48.532;8.722;2022-09-09T06:36:13;13.90;99.90
26589;DHT22;14235;48.532;8.722;2022-09-09T06:38:40;14.00;99.90
26589;DHT22;14235;48.532;8.722;2022-09-09T06:41:06;14.00;99.90
26589;DHT22;14235;48.532;8.722;2022-09-09T06:43:32;14.10;99.90
26589;DHT22;14235;48.532;8.722;2022-09-09T06:46:20;14.00;99.90
26589;DHT22;14235;48.532;8.722;2022-09-09T06:48:45;14.00;99.90
26589;DHT22;14235;48.532;8.722;2022-09-09T06:51:15;14.10;99.90
26589;DHT22;14235;48.532;8.722;2022-09-09T06:53:42;14.10;99.90
26589;DHT22;14235;48.532;8.722;2022-09-09T06:56:23;14.30;99.90
26589;DHT22;14235;48.532;8.722;2022-09-09T06:58:50;14.30;99.90
26589;DHT22;14235;48.532;8.722;2022-09-09T07:01:20;14.40;99.90
26589;DHT22;14235;48.532;8.722;2022-09-09T07:03:48;14.40;99.90
26589;DHT22;14235;48.532;8.722;2022-09-09T07:06:21;14.40;99.90
26589;DHT22;14235;48.532;8.722;2022-09-09T07:08:56;14.40;99.90
26589;DHT22;14235;48.532;8.722;2022-09-09T07:11:26;14.40;99.90
26589;DHT22;14235;48.532;8.722;2022-09-09T07:13:56;14.50;99.90
26589;DHT22;14235;48.532;8.722;2022-09-09T07:16:22;14.50;99.90
26589;DHT22;14235;48.532;8.722;2022-09-09T07:18:53;14.50;99.90
26589;DHT22;14235;48.532;8.722;2022-09-09T07:21:23;14.70;99.90
26589;DHT22;14235;48.532;8.722;2022-09-09T07:23:50;14.60;99.90
26589;DHT22;14235;48.532;8.722;2022-09-09T07:26:20;14.60;99.90
26589;DHT22;14235;48.532;8.722;2022-09-09T07:28:46;14.70;99.90
26589;DHT22;14235;48.532;8.722;2022-09-09T07:31:21;14.80;99.90
26589;DHT22;14235;48.532;8.722;2022-09-09T07:33:47;14.80;99.90
26589;DHT22;14235;48.532;8.722;2022-09-09T07:36:19;14.90;99.90
26589;DHT22;14235;48.532;8.722;2022-09-09T07:38:49;14.90;99.90
26589;DHT22;14235;48.532;8.722;2022-09-09T07:41:19;14.90;99.90
26589;DHT22;14235;48.532;8.722;2022-09-09T07:43:48;14.90;99.90
26589;DHT22;14235;48.532;8.722;2022-09-09T07:46:15;14.90;99.90
26589;DHT22;14235;48.532;8.722;2022-09-09T07:48:44;15.00;99.90
26589;DHT22;14235;48.532;8.722;2022-09-09T07:51:14;15.00;99.90
26589;DHT22;14235;48.532;8.722;2022-09-09T07:53:42;15.20;99.90
26589;DHT22;14235;48.532;8.722;2022-09-09T07:56:11;15.30;99.90
26589;DHT22;14235;48.532;8.722;2022-09-09T07:58:38;15.30;99.90
26589;DHT22;14235;48.532;8.722;2022-09-09T08:01:13;15.40;99.90
26589;DHT22;14235;48.532;8.722;2022-09-09T08:03:39;15.50;99.90
26589;DHT22;14235;48.532;8.722;2022-09-09T08:06:07;15.70;99.90
26589;DHT22;14235;48.532;8.722;2022-09-09T08:08:34;15.80;99.90
26589;DHT22;14235;48.532;8.722;2022-09-09T08:11:05;15.90;99.90
26589;DHT22;14235;48.532;8.722;2022-09-09T08:13:34;16.00;99.90
26589;DHT22;14235;48.532;8.722;2022-09-09T08:16:14;16.20;99.90
26589;DHT22;14235;48.532;8.722;2022-09-09T08:18:40;16.20;99.90
26589;DHT22;14235;48.532;8.722;2022-09-09T08:21:14;16.30;99.90
26589;DHT22;14235;48.532;8.722;2022-09-09T08:23:41;16.50;99.90
26589;DHT22;14235;48.532;8.722;2022-09-09T08:26:12;16.70;99.90
26589;DHT22;14235;48.532;8.722;2022-09-09T08:28:39;16.70;99.90
26589;DHT22;14235;48.532;8.722;2022-09-09T08:31:11;16.80;99.90
26589;DHT22;14235;48.532;8.722;2022-09-09T08:33:37;16.90;99.90
26589;DHT22;14235;48.532;8.722;2022-09-09T08:36:05;16.90;99.90
26589;DHT22;14235;48.532;8.722;2022-09-09T08:38:31;17.10;99.90
26589;DHT22;14235;48.532;8.722;2022-09-09T08:41:07;17.00;99.90
26589;DHT22;14235;48.532;8.722;2022-09-09T08:43:36;17.20;99.90
26589;DHT22;14235;48.532;8.722;2022-09-09T08:51:18;17.00;99.90
26589;DHT22;14235;48.532;8.722;2022-09-09T08:53:48;17.20;99.90
26589;DHT22;14235;48.532;8.722;2022-09-09T08:56:18;17.20;99.90
26589;DHT22;14235;48.532;8.722;2022-09-09T08:58:52;17.20;99.90
26589;DHT22;14235;48.532;8.722;2022-09-09T09:04:30;17.40;99.90
26589;DHT22;14235;48.532;8.722;2022-09-09T09:10:19;17.50;99.90
26589;DHT22;14235;48.532;8.722;2022-09-09T09:12:48;17.60;99.90
26589;DHT22;14235;48.532;8.722;2022-09-09T09:15:19;17.60;99.90
26589;DHT22;14235;48.532;8.722;2022-09-09T09:17:46;17.50;99.90
26589;DHT22;14235;48.532;8.722;2022-09-09T09:20:15;17.40;99.90
26589;DHT22;14235;48.532;8.722;2022-09-09T09:22:49;17.40;99.90
26589;DHT22;14235;48.532;8.722;2022-09-09T09:25:23;17.40;99.90
26589;DHT22;14235;48.532;8.722;2022-09-09T09:30:35;17.50;99.90
26589;DHT22;14235;48.532;8.722;2022-09-09T09:35:42;17.60;99.90
26589;DHT22;14235;48.532;8.722;2022-09-09T09:40:52;17.60;99.90
26589;DHT22;14235;48.532;8.722;2022-09-09T09:43:27;17.50;99.90
26589;DHT22;14235;48.532;8.722;2022-09-09T09:45:53;17.50;99.90
26589;DHT22;14235;48.532;8.722;2022-09-09T09:48:19;17.40;99.90
26589;DHT22;14235;48.532;8.722;2022-09-09T09:50:51;17.50;99.90
26589;DHT22;14235;48.532;8.722;2022-09-09T09:55:53;17.60;99.90
26589;DHT22;14235;48.532;8.722;2022-09-09T09:58:19;17.70;99.90
26589;DHT22;14235;48.532;8.722;2022-09-09T10:00:49;17.80;99.90
26589;DHT22;14235;48.532;8.722;2022-09-09T10:03:32;17.90;99.90
26589;DHT22;14235;48.532;8.722;2022-09-09T10:06:04;18.00;99.90
26589;DHT22;14235;48.532;8.722;2022-09-09T10:08:34;18.30;99.90
26589;DHT22;14235;48.532;8.722;2022-09-09T10:19:00;18.50;99.90
26589;DHT22;14235;48.532;8.722;2022-09-09T10:24:33;18.70;99.90
26589;DHT22;14235;48.532;8.722;2022-09-09T10:30:13;18.90;99.90
26589;DHT22;14235;48.532;8.722;2022-09-09T10:32:49;18.80;99.90
26589;DHT22;14235;48.532;8.722;2022-09-09T10:57:28;17.70;99.90
26589;DHT22;14235;48.532;8.722;2022-09-09T11:00:03;17.40;99.90
26589;DHT22;14235;48.532;8.722;2022-09-09T11:02:32;17.20;99.90
26589;DHT22;14235;48.532;8.722;2022-09-09T11:05:20;17.20;99.90
26589;DHT22;14235;48.532;8.722;2022-09-09T11:08:28;17.00;99.90
26589;DHT22;14235;48.532;8.722;2022-09-09T11:11:02;17.00;99.90
26589;DHT22;14235;48.532;8.722;2022-09-09T11:21:44;17.30;99.90
26589;DHT22;14235;48.532;8.722;2022-09-09T11:35:06;17.50;99.90
26589;DHT22;14235;48.532;8.722;2022-09-09T11:40:28;17.70;99.90
26589;DHT22;14235;48.532;8.722;2022-09-09T11:45:59;17.70;99.90
26589;DHT22;14235;48.532;8.722;2022-09-09T11:48:36;18.00;99.90
26589;DHT22;14235;48.532;8.722;2022-09-09T11:51:11;18.10;99.90
26589;DHT22;14235;48.532;8.722;2022-09-09T11:53:58;18.10;99.90
26589;DHT22;14235;48.532;8.722;2022-09-09T11:56:29;18.10;99.90
26589;DHT22;14235;48.532;8.722;2022-09-09T11:59:06;18.20;99.90
26589;DHT22;14235;48.532;8.722;2022-09-09T12:01:42;18.20;99.90
26589;DHT22;14235;48.532;8.722;2022-09-09T12:09:50;18.30;99.90
26589;DHT22;14235;48.532;8.722;2022-09-09T12:12:36;18.30;99.90
26589;DHT22;14235;48.532;8.722;2022-09-09T12:17:43;18.30;99.90
26589;DHT22;14235;48.532;8.722;2022-09-09T12:23:19;18.40;99.90
26589;DHT22;14235;48.532;8.722;2022-09-09T12:26:09;18.60;99.90
26589;DHT22;14235;48.532;8.722;2022-09-09T12:28:44;18.60;99.90
26589;DHT22;14235;48.532;8.722;2022-09-09T12:36:44;19.00;99.90
26589;DHT22;14235;48.532;8.722;2022-09-09T12:39:24;19.10;99.90
26589;DHT22;14235;48.532;8.722;2022-09-09T12:41:53;19.20;99.90
26589;DHT22;14235;48.532;8.722;2022-09-09T12:44:23;19.30;99.90
26589;DHT22;14235;48.532;8.722;2022-09-09T12:46:51;19.40;99.90
26589;DHT22;14235;48.532;8.722;2022-09-09T12:49:37;19.60;99.90
26589;DHT22;14235;48.532;8.722;2022-09-09T12:52:23;19.70;99.90
26589;DHT22;14235;48.532;8.722;2022-09-09T12:54:50;19.80;99.90
26589;DHT22;14235;48.532;8.722;2022-09-09T12:57:17;19.90;99.90
26589;DHT22;14235;48.532;8.722;2022-09-09T12:59:44;19.90;99.90
26589;DHT22;14235;48.532;8.722;2022-09-09T13:02:22;19.80;99.90
26589;DHT22;14235;48.532;8.722;2022-09-09T13:04:49;19.70;99.90
26589;DHT22;14235;48.532;8.722;2022-09-09T13:07:17;19.80;99.90
26589;DHT22;14235;48.532;8.722;2022-09-09T13:09:44;19.90;99.90
26589;DHT22;14235;48.532;8.722;2022-09-09T13:12:21;20.00;99.90
26589;DHT22;14235;48.532;8.722;2022-09-09T13:14:50;20.10;99.90
26589;DHT22;14235;48.532;8.722;2022-09-09T13:17:28;20.30;99.90
26589;DHT22;14235;48.532;8.722;2022-09-09T13:19:55;20.60;99.90
26589;DHT22;14235;48.532;8.722;2022-09-09T13:22:35;20.80;99.90
26589;DHT22;14235;48.532;8.722;2022-09-09T13:27:41;20.90;94.90
26589;DHT22;14235;48.532;8.722;2022-09-09T13:33:05;21.00;94.40
26589;DHT22;14235;48.532;8.722;2022-09-09T13:35:31;21.10;94.10
26589;DHT22;14235;48.532;8.722;2022-09-09T13:37:58;21.20;93.20
26589;DHT22;14235;48.532;8.722;2022-09-09T13:40:25;21.10;92.40
26589;DHT22;14235;48.532;8.722;2022-09-09T13:42:57;21.20;92.60
26589;DHT22;14235;48.532;8.722;2022-09-09T13:45:26;21.20;91.80
26589;DHT22;14235;48.532;8.722;2022-09-09T13:47:53;21.30;91.50
26589;DHT22;14235;48.532;8.722;2022-09-09T13:50:21;21.40;91.10
26589;DHT22;14235;48.532;8.722;2022-09-09T13:52:48;21.50;91.00
26589;DHT22;14235;48.532;8.722;2022-09-09T13:55:17;21.60;91.20
26589;DHT22;14235;48.532;8.722;2022-09-09T13:57:57;21.80;90.00
26589;DHT22;14235;48.532;8.722;2022-09-09T14:05:17;23.70;94.00
26589;DHT22;14235;48.532;8.722;2022-09-09T14:07:44;26.40;90.70
26589;DHT22;14235;48.532;8.722;2022-09-09T14:17:29;33.10;55.10
26589;DHT22;14235;48.532;8.722;2022-09-09T14:19:57;33.30;54.60
26589;DHT22;14235;48.532;8.722;2022-09-09T14:56:31;36.40;38.50
26589;DHT22;14235;48.532;8.722;2022-09-09T14:59:00;35.90;39.30
26589;DHT22;14235;48.532;8.722;2022-09-09T15:01:29;35.70;39.60
26589;DHT22;14235;48.532;8.722;2022-09-09T15:04:02;35.50;39.10
26589;DHT22;14235;48.532;8.722;2022-09-09T15:06:30;35.30;42.40
26589;DHT22;14235;48.532;8.722;2022-09-09T15:08:57;33.60;40.10
26589;DHT22;14235;48.532;8.722;2022-09-09T15:11:30;32.50;40.90
26589;DHT22;14235;48.532;8.722;2022-09-09T15:16:26;30.30;50.90
26589;DHT22;14235;48.532;8.722;2022-09-09T15:18:54;29.90;54.70
26589;DHT22;14235;48.532;8.722;2022-09-09T15:21:22;29.80;54.70
26589;DHT22;14235;48.532;8.722;2022-09-09T15:23:48;29.00;56.00
26589;DHT22;14235;48.532;8.722;2022-09-09T15:28:43;27.60;42.00
26589;DHT22;14235;48.532;8.722;2022-09-09T15:33:37;26.90;47.70
26589;DHT22;14235;48.532;8.722;2022-09-09T15:36:24;26.30;44.70
26589;DHT22;14235;48.532;8.722;2022-09-09T15:38:51;25.80;46.80
26589;DHT22;14235;48.532;8.722;2022-09-09T15:41:18;25.70;47.70
26589;DHT22;14235;48.532;8.722;2022-09-09T15:43:48;25.40;48.70
26589;DHT22;14235;48.532;8.722;2022-09-09T15:48:46;24.80;49.60
26589;DHT22;14235;48.532;8.722;2022-09-09T15:51:14;24.50;50.20
26589;DHT22;14235;48.532;8.722;2022-09-09T15:53:40;24.30;50.20
26589;DHT22;14235;48.532;8.722;2022-09-09T15:56:06;24.10;50.70
26589;DHT22;14235;48.532;8.722;2022-09-09T15:58:33;23.90;53.30
26589;DHT22;14235;48.532;8.722;2022-09-09T16:01:08;23.50;61.90
26589;DHT22;14235;48.532;8.722;2022-09-09T16:13:38;22.50;54.90
26589;DHT22;14235;48.532;8.722;2022-09-09T16:16:05;22.20;56.20
26589;DHT22;14235;48.532;8.722;2022-09-09T16:18:41;22.10;56.60
26589;DHT22;14235;48.532;8.722;2022-09-09T16:21:07;22.10;56.70
26589;DHT22;14235;48.532;8.722;2022-09-09T16:23:33;22.10;58.80
26589;DHT22;14235;48.532;8.722;2022-09-09T16:25:59;22.20;57.40
26589;DHT22;14235;48.532;8.722;2022-09-09T16:28:25;22.20;57.80
26589;DHT22;14235;48.532;8.722;2022-09-09T16:30:50;22.20;58.80
26589;DHT22;14235;48.532;8.722;2022-09-09T16:33:16;22.00;59.80
26589;DHT22;14235;48.532;8.722;2022-09-09T16:35:43;21.90;60.00
26589;DHT22;14235;48.532;8.722;2022-09-09T16:38:09;21.90;59.90
26589;DHT22;14235;48.532;8.722;2022-09-09T16:40:36;21.80;66.40
26589;DHT22;14235;48.532;8.722;2022-09-09T16:43:02;21.70;66.30
26589;DHT22;14235;48.532;8.722;2022-09-09T16:45:28;21.70;62.30
26589;DHT22;14235;48.532;8.722;2022-09-09T16:47:54;21.60;62.60
26589;DHT22;14235;48.532;8.722;2022-09-09T16:50:20;21.60;63.10
26589;DHT22;14235;48.532;8.722;2022-09-09T16:52:45;21.30;63.70
26589;DHT22;14235;48.532;8.722;2022-09-09T16:55:11;21.40;71.70
26589;DHT22;14235;48.532;8.722;2022-09-09T16:57:37;21.30;74.60
26589;DHT22;14235;48.532;8.722;2022-09-09T17:00:03;21.20;74.50
26589;DHT22;14235;48.532;8.722;2022-09-09T17:02:31;21.30;73.30
26589;DHT22;14235;48.532;8.722;2022-09-09T17:04:56;21.30;73.60
26589;DHT22;14235;48.532;8.722;2022-09-09T17:07:22;21.30;74.70
26589;DHT22;14235;48.532;8.722;2022-09-09T17:09:48;21.30;73.30
26589;DHT22;14235;48.532;8.722;2022-09-09T17:12:15;21.30;74.00
26589;DHT22;14235;48.532;8.722;2022-09-09T17:14:41;21.30;74.50
26589;DHT22;14235;48.532;8.722;2022-09-09T17:17:07;21.20;79.90
26589;DHT22;14235;48.532;8.722;2022-09-09T17:19:33;21.20;76.50
26589;DHT22;14235;48.532;8.722;2022-09-09T17:24:26;20.70;82.10
26589;DHT22;14235;48.532;8.722;2022-09-09T17:26:54;20.50;90.60
26589;DHT22;14235;48.532;8.722;2022-09-09T17:29:19;20.20;82.30
26589;DHT22;14235;48.532;8.722;2022-09-09T17:31:45;20.10;87.00
26589;DHT22;14235;48.532;8.722;2022-09-09T17:34:10;19.90;88.60
26589;DHT22;14235;48.532;8.722;2022-09-09T17:36:37;19.60;98.30
26589;DHT22;14235;48.532;8.722;2022-09-09T17:39:04;19.60;99.80
26589;DHT22;14235;48.532;8.722;2022-09-09T17:41:35;19.50;99.40
26589;DHT22;14235;48.532;8.722;2022-09-09T17:44:02;19.20;97.60
26589;DHT22;14235;48.532;8.722;2022-09-09T17:46:35;19.10;99.50
26589;DHT22;14235;48.532;8.722;2022-09-09T17:49:07;19.10;99.90
26589;DHT22;14235;48.532;8.722;2022-09-09T17:51:35;19.10;99.90
26589;DHT22;14235;48.532;8.722;2022-09-09T17:54:06;18.80;99.90
26589;DHT22;14235;48.532;8.722;2022-09-09T17:56:36;18.80;99.90
26589;DHT22;14235;48.532;8.722;2022-09-09T17:59:04;18.60;99.90
26589;DHT22;14235;48.532;8.722;2022-09-09T18:01:32;18.70;99.90
26589;DHT22;14235;48.532;8.722;2022-09-09T18:04:00;18.50;99.90
26589;DHT22;14235;48.532;8.722;2022-09-09T18:06:28;18.60;99.90
26589;DHT22;14235;48.532;8.722;2022-09-09T18:12:07;18.80;99.90
26589;DHT22;14235;48.532;8.722;2022-09-09T18:14:33;18.80;99.90
26589;DHT22;14235;48.532;8.722;2022-09-09T18:17:01;19.20;99.90
26589;DHT22;14235;48.532;8.722;2022-09-09T18:19:28;19.20;99.90
26589;DHT22;14235;48.532;8.722;2022-09-09T18:21:55;18.70;99.90
26589;DHT22;14235;48.532;8.722;2022-09-09T18:24:22;18.80;99.90
26589;DHT22;14235;48.532;8.722;2022-09-09T18:26:48;18.90;99.90
26589;DHT22;14235;48.532;8.722;2022-09-09T18:29:16;18.80;99.90
26589;DHT22;14235;48.532;8.722;2022-09-09T18:31:44;18.80;99.90
26589;DHT22;14235;48.532;8.722;2022-09-09T18:34:13;18.50;99.90
26589;DHT22;14235;48.532;8.722;2022-09-09T18:36:42;18.40;99.90
26589;DHT22;14235;48.532;8.722;2022-09-09T18:39:09;18.40;99.90
26589;DHT22;14235;48.532;8.722;2022-09-09T18:41:41;18.30;99.90
26589;DHT22;14235;48.532;8.722;2022-09-09T18:44:12;18.30;99.90
26589;DHT22;14235;48.532;8.722;2022-09-09T18:46:38;18.30;99.90
26589;DHT22;14235;48.532;8.722;2022-09-09T18:49:04;18.20;99.90
26589;DHT22;14235;48.532;8.722;2022-09-09T18:51:30;17.80;99.90
26589;DHT22;14235;48.532;8.722;2022-09-09T19:18:42;17.10;99.90
26589;DHT22;14235;48.532;8.722;2022-09-09T19:33:34;16.60;99.90
26589;DHT22;14235;48.532;8.722;2022-09-09T19:36:03;16.70;99.90
26589;DHT22;14235;48.532;8.722;2022-09-09T19:38:30;17.00;99.90
26589;DHT22;14235;48.532;8.722;2022-09-09T19:41:02;16.50;99.90
26589;DHT22;14235;48.532;8.722;2022-09-09T19:45:59;16.60;99.90
26589;DHT22;14235;48.532;8.722;2022-09-09T19:51:06;16.70;99.90
26589;DHT22;14235;48.532;8.722;2022-09-09T19:56:05;16.60;99.90
26589;DHT22;14235;48.532;8.722;2022-09-09T19:58:36;16.40;99.90
26589;DHT22;14235;48.532;8.722;2022-09-09T20:08:28;16.50;99.90
26589;DHT22;14235;48.532;8.722;2022-09-09T20:16:02;16.30;99.90
26589;DHT22;14235;48.532;8.722;2022-09-09T20:23:26;16.00;99.90
26589;DHT22;14235;48.532;8.722;2022-09-09T20:25:52;16.20;99.90
26589;DHT22;14235;48.532;8.722;2022-09-09T20:28:20;15.90;99.90
26589;DHT22;14235;48.532;8.722;2022-09-09T20:50:26;15.70;99.90